createdAt,value
2018-09-10T00:00:47.363Z,98951.88
2018-09-10T00:03:17.073Z,98950.23
2018-09-10T00:05:45.709Z,98955.67
2018-09-10T00:08:15.419Z,98957.41
2018-09-10T00:10:45.364Z,98963.91
2018-09-10T00:13:13.668Z,98958.84
2018-09-10T00:15:41.914Z,98955.88
2018-09-10T00:18:10.170Z,98962.94
2018-09-10T00:20:39.019Z,98966.72
2018-09-10T00:23:07.376Z,98965.55
2018-09-10T00:25:35.779Z,98967.80
2018-09-10T00:28:04.630Z,98965.80
2018-09-10T00:30:33.136Z,98965.45
2018-09-10T00:33:02.281Z,98965.34
2018-09-10T00:35:31.278Z,98958.40
2018-09-10T00:38:01.461Z,98967.11
2018-09-10T00:40:30.390Z,98965.31
2018-09-10T00:42:58.628Z,98967.09
2018-09-10T00:45:28.508Z,98962.03
2018-09-10T00:47:56.909Z,98961.91
2018-09-10T00:50:25.354Z,98962.27
2018-09-10T00:52:53.673Z,98964.29
2018-09-10T00:55:22.563Z,98964.99
2018-09-10T00:57:51.649Z,98971.83
2018-09-10T01:00:22.585Z,98973.22
2018-09-10T01:02:51.471Z,98978.66
2018-09-10T01:05:22.089Z,98974.17
2018-09-10T01:07:52.001Z,98973.01
2018-09-10T01:10:21.124Z,98975.69
2018-09-10T01:12:49.610Z,98977.11
2018-09-10T01:15:19.752Z,98976.38
2018-09-10T01:17:48.921Z,98976.28
2018-09-10T01:20:17.971Z,98968.25
2018-09-10T01:22:46.216Z,98976.39
2018-09-10T01:25:16.207Z,98972.50
2018-09-10T01:27:46.556Z,98968.28
2018-09-10T01:30:16.426Z,98967.34
2018-09-10T01:32:44.850Z,98962.73
2018-09-10T01:35:15.426Z,98962.03
2018-09-10T01:37:44.617Z,98963.80
2018-09-10T01:40:13.353Z,98957.67
2018-09-10T01:42:43.291Z,98957.64
2018-09-10T01:45:13.906Z,98953.75
2018-09-10T01:47:43.834Z,98951.30
2018-09-10T01:50:12.337Z,98953.52
2018-09-10T01:52:41.227Z,98950.34
2018-09-10T01:55:09.540Z,98949.61
2018-09-10T01:57:38.067Z,98945.73
2018-09-10T02:00:06.409Z,98942.88
2018-09-10T02:02:35.699Z,98938.86
2018-09-10T02:05:05.065Z,98946.02
2018-09-10T02:07:34.117Z,98948.11
2018-09-10T02:10:02.515Z,98944.83
2018-09-10T02:12:30.944Z,98943.47
2018-09-10T02:14:59.973Z,98945.79
2018-09-10T02:17:28.286Z,98942.13
2018-09-10T02:19:57.315Z,98942.82
2018-09-10T02:22:25.594Z,98947.95
2018-09-10T02:24:54.572Z,98944.81
2018-09-10T02:27:23.168Z,98950.91
2018-09-10T02:29:51.491Z,98952.25
2018-09-10T02:32:19.724Z,98950.95
2018-09-10T02:34:50.584Z,98954.47
2018-09-10T02:37:21.295Z,98956.23
2018-09-10T02:39:51.214Z,98957.38
2018-09-10T02:42:19.595Z,98957.76
2018-09-10T02:44:47.836Z,98953.17
2018-09-10T02:47:16.736Z,98964.08
2018-09-10T02:49:45.057Z,98966.15
2018-09-10T02:52:13.756Z,98963.79
2018-09-10T02:54:42.379Z,98969.56
2018-09-10T02:57:10.637Z,98973.58
2018-09-10T02:59:39.051Z,98980.97
2018-09-10T03:02:08.322Z,98973.89
2018-09-10T03:04:37.410Z,98979.88
2018-09-10T03:07:06.061Z,98970.91
2018-09-10T03:09:35.854Z,98970.16
2018-09-10T03:12:04.356Z,98974.87
2018-09-10T03:14:32.564Z,98966.27
2018-09-10T03:17:01.660Z,98970.45
2018-09-10T03:19:30.205Z,98960.70
2018-09-10T03:22:00.388Z,98964.44
2018-09-10T03:24:28.733Z,98957.61
2018-09-10T03:26:57.130Z,98962.09
2018-09-10T03:29:26.362Z,98960.21
2018-09-10T03:31:55.413Z,98960.19
2018-09-10T03:34:24.000Z,98961.78
2018-09-10T03:36:52.439Z,98955.53
2018-09-10T03:39:21.364Z,98952.08
2018-09-10T03:41:49.954Z,98946.14
2018-09-10T03:44:19.358Z,98954.63
2018-09-10T03:46:47.780Z,98956.23
2018-09-10T03:49:16.123Z,98963.48
2018-09-10T03:51:45.129Z,98966.91
2018-09-10T03:54:13.460Z,98968.31
2018-09-10T03:56:44.526Z,98968.84
2018-09-10T03:59:13.676Z,98969.80
2018-09-10T04:01:42.886Z,98978.67
2018-09-10T04:04:11.480Z,98977.60
2018-09-10T04:06:41.205Z,98979.17
2018-09-10T04:09:10.128Z,98983.69
2018-09-10T04:11:39.006Z,98990.85
2018-09-10T04:14:07.900Z,98990.45
2018-09-10T04:16:37.065Z,98993.52
2018-09-10T04:19:06.127Z,98993.61
2018-09-10T04:21:35.148Z,98986.17
2018-09-10T04:24:03.514Z,98989.10
2018-09-10T04:26:32.028Z,98991.73
2018-09-10T04:29:02.448Z,98993.91
2018-09-10T04:31:38.996Z,98994.28
2018-09-10T04:34:08.084Z,98987.21
2018-09-10T04:36:36.521Z,98991.34
2018-09-10T04:39:07.708Z,98997.45
2018-09-10T04:41:39.937Z,99002.08
2018-09-10T04:44:09.681Z,99003.13
2018-09-10T04:46:39.535Z,99003.01
2018-09-10T04:49:08.803Z,98993.97
2018-09-10T04:51:37.110Z,98997.50
2018-09-10T04:54:05.728Z,99000.42
2018-09-10T04:56:34.645Z,99001.78
2018-09-10T04:59:02.969Z,99000.95
2018-09-10T05:01:31.759Z,99008.45
2018-09-10T05:04:00.415Z,99011.66
2018-09-10T05:06:29.038Z,99022.73
2018-09-10T05:08:57.501Z,99026.89
2018-09-10T05:11:26.071Z,99024.55
2018-09-10T05:13:54.317Z,99024.92
2018-09-10T05:16:22.498Z,99025.22
2018-09-10T05:18:51.336Z,99023.30
2018-09-10T05:21:19.554Z,99017.48
2018-09-10T05:23:47.817Z,99016.97
2018-09-10T05:26:16.409Z,99020.05
2018-09-10T05:28:44.912Z,99028.81
2018-09-10T05:31:13.038Z,99029.82
2018-09-10T05:33:41.920Z,99026.58
2018-09-10T05:36:10.685Z,99034.73
2018-09-10T05:38:39.441Z,99035.34
2018-09-10T05:41:07.654Z,99045.94
2018-09-10T05:43:36.432Z,99041.52
2018-09-10T05:46:04.982Z,99036.64
2018-09-10T05:48:33.519Z,99035.28
2018-09-10T05:51:02.821Z,99038.47
2018-09-10T05:53:31.090Z,99040.39
2018-09-10T05:55:59.341Z,99042.00
2018-09-10T05:58:27.648Z,99043.20
2018-09-10T06:00:56.270Z,99051.20
2018-09-10T06:03:24.476Z,99051.84
2018-09-10T06:05:53.002Z,99052.81
2018-09-10T06:08:22.196Z,99049.55
2018-09-10T06:10:50.439Z,99053.45
2018-09-10T06:13:20.028Z,99039.90
2018-09-10T06:15:48.670Z,99048.36
2018-09-10T06:18:17.043Z,99050.04
2018-09-10T06:20:45.535Z,99050.93
2018-09-10T06:23:14.414Z,99051.72
2018-09-10T06:25:42.998Z,99054.89
2018-09-10T06:28:11.624Z,99053.34
2018-09-10T06:30:40.112Z,99051.02
2018-09-10T06:33:08.440Z,99047.23
2018-09-10T06:35:36.876Z,99046.94
2018-09-10T06:38:05.910Z,99042.63
2018-09-10T06:40:34.617Z,99049.18
2018-09-10T06:43:02.895Z,99052.76
2018-09-10T06:45:31.380Z,99060.51
2018-09-10T06:47:59.679Z,99062.56
2018-09-10T06:50:27.893Z,99056.22
2018-09-10T06:52:56.105Z,99065.56
2018-09-10T06:55:24.355Z,99068.91
2018-09-10T06:57:53.042Z,99068.50
2018-09-10T07:00:21.737Z,99066.28
2018-09-10T07:02:50.217Z,99069.23
2018-09-10T07:05:18.493Z,99062.86
2018-09-10T07:07:47.135Z,99058.62
2018-09-10T07:10:15.661Z,99064.55
2018-09-10T07:12:45.491Z,99066.59
2018-09-10T07:15:15.318Z,99066.24
2018-09-10T07:17:43.532Z,99075.90
2018-09-10T07:20:12.860Z,99074.45
2018-09-10T07:22:41.409Z,99079.75
2018-09-10T07:25:10.242Z,99082.34
2018-09-10T07:27:38.544Z,99084.28
2018-09-10T07:30:06.997Z,99079.97
2018-09-10T07:32:35.222Z,99086.41
2018-09-10T07:35:04.057Z,99086.59
2018-09-10T07:37:33.160Z,99085.77
2018-09-10T07:40:01.524Z,99074.92
2018-09-10T07:42:29.833Z,99081.34
2018-09-10T07:44:58.349Z,99089.43
2018-09-10T07:47:28.209Z,99091.94
2018-09-10T07:49:57.488Z,99087.29
2018-09-10T07:52:26.060Z,99090.73
2018-09-10T07:54:54.345Z,99089.37
2018-09-10T07:57:22.678Z,99081.91
2018-09-10T07:59:51.532Z,99081.34
2018-09-10T08:02:19.864Z,99091.06
2018-09-10T08:04:49.037Z,99087.84
2018-09-10T08:07:18.666Z,99093.03
2018-09-10T08:09:47.700Z,99092.98
2018-09-10T08:12:19.346Z,99087.30
2018-09-10T08:14:48.259Z,99089.25
2018-09-10T08:17:17.347Z,99089.08
2018-09-10T08:19:45.828Z,99094.84
2018-09-10T08:22:14.628Z,99096.14
2018-09-10T08:24:43.130Z,99092.56
2018-09-10T08:27:12.135Z,99095.33
2018-09-10T08:29:40.877Z,99100.86
2018-09-10T08:32:09.447Z,99096.62
2018-09-10T08:34:38.285Z,99101.39
2018-09-10T08:37:07.365Z,99101.73
2018-09-10T08:39:35.642Z,99098.89
2018-09-10T08:42:04.260Z,99103.77
2018-09-10T08:44:33.178Z,99108.21
2018-09-10T08:47:01.567Z,99109.09
2018-09-10T08:49:30.310Z,99111.86
2018-09-10T08:51:58.856Z,99113.33
2018-09-10T08:54:28.171Z,99109.42
2018-09-10T08:56:56.333Z,99103.84
2018-09-10T08:59:25.655Z,99109.39
2018-09-10T09:01:56.405Z,99105.74
2018-09-10T09:04:26.127Z,99094.03
2018-09-10T09:06:55.017Z,99098.81
2018-09-10T09:09:24.438Z,99095.39
2018-09-10T09:11:54.216Z,99096.77
2018-09-10T09:14:23.324Z,99097.88
2018-09-10T09:16:52.204Z,99094.05
2018-09-10T09:19:21.672Z,99093.30
2018-09-10T09:21:50.688Z,99089.30
2018-09-10T09:24:21.182Z,99091.45
2018-09-10T09:26:49.783Z,99093.30
2018-09-10T09:29:18.952Z,99090.55
2018-09-10T09:31:47.303Z,99087.53
2018-09-10T09:34:16.054Z,99085.26
2018-09-10T09:36:52.119Z,99086.11
2018-09-10T09:39:27.933Z,99086.61
2018-09-10T09:42:02.374Z,99083.85
2018-09-10T09:44:36.882Z,99079.81
2018-09-10T09:47:06.980Z,99083.22
2018-09-10T09:49:35.994Z,99078.55
2018-09-10T09:52:04.911Z,99074.75
2018-09-10T09:54:38.635Z,99078.67
2018-09-10T09:57:08.820Z,99072.78
2018-09-10T09:59:38.301Z,99074.93
2018-09-10T10:03:10.643Z,99068.42
2018-09-10T10:05:39.629Z,99068.50
2018-09-10T10:08:09.304Z,99063.13
2018-09-10T10:10:38.824Z,99053.06
2018-09-10T10:13:08.503Z,99053.03
2018-09-10T10:15:38.613Z,99048.98
2018-09-10T10:18:07.318Z,99050.05
2018-09-10T10:20:36.220Z,99046.52
2018-09-10T10:23:05.104Z,99045.61
2018-09-10T10:25:34.187Z,99052.73
2018-09-10T10:28:03.861Z,99051.80
2018-09-10T10:30:34.327Z,99058.84
2018-09-10T10:33:03.898Z,99057.13
2018-09-10T10:35:33.523Z,99053.08
2018-09-10T10:38:02.084Z,99057.47
2018-09-10T10:40:30.656Z,99058.84
2018-09-10T10:43:00.998Z,99062.19
2018-09-10T10:45:30.528Z,99061.28
2018-09-10T10:48:01.061Z,99058.38
2018-09-10T10:50:32.143Z,99054.35
2018-09-10T10:53:03.208Z,99049.65
2018-09-10T10:55:33.581Z,99047.99
2018-09-10T10:58:03.744Z,99054.11
2018-09-10T11:00:32.476Z,99053.58
2018-09-10T11:03:01.841Z,99047.32
2018-09-10T11:05:30.598Z,99048.35
2018-09-10T11:07:59.456Z,99051.80
2018-09-10T11:10:29.271Z,99046.36
2018-09-10T11:12:57.771Z,99054.23
2018-09-10T11:15:27.032Z,99043.56
2018-09-10T11:17:57.127Z,99039.39
2018-09-10T11:20:26.254Z,99030.91
2018-09-10T11:22:54.740Z,99034.54
2018-09-10T11:25:23.912Z,99031.55
2018-09-10T11:27:52.497Z,99028.30
2018-09-10T11:30:20.658Z,99025.59
2018-09-10T11:32:48.924Z,99026.94
2018-09-10T11:35:17.154Z,99024.08
2018-09-10T11:37:45.624Z,99026.34
2018-09-10T11:40:14.257Z,99024.45
2018-09-10T11:42:42.468Z,99028.53
2018-09-10T11:45:10.687Z,99031.50
2018-09-10T11:47:39.245Z,99032.87
2018-09-10T11:50:07.979Z,99034.98
2018-09-10T11:52:36.172Z,99035.78
2018-09-10T11:55:05.225Z,99032.62
2018-09-10T11:57:33.505Z,99021.95
2018-09-10T12:00:02.296Z,99020.63
2018-09-10T12:02:38.694Z,99015.16
2018-09-10T12:05:07.246Z,99009.64
2018-09-10T12:07:36.589Z,99009.73
2018-09-10T12:10:05.239Z,99016.70
2018-09-10T12:12:33.507Z,99016.48
2018-09-10T12:15:01.920Z,99017.91
2018-09-10T12:17:31.082Z,99010.05
2018-09-10T12:20:00.426Z,99017.19
2018-09-10T12:22:31.645Z,99018.02
2018-09-10T12:24:59.883Z,99011.28
2018-09-10T12:27:29.161Z,99013.50
2018-09-10T12:29:57.714Z,99002.59
2018-09-10T12:32:26.485Z,99002.06
2018-09-10T12:34:54.985Z,98994.12
2018-09-10T12:37:23.232Z,98992.20
2018-09-10T12:39:51.822Z,98988.32
2018-09-10T12:42:20.302Z,98978.70
2018-09-10T12:44:48.808Z,98984.66
2018-09-10T12:47:17.069Z,98977.45
2018-09-10T12:49:45.354Z,98972.02
2018-09-10T12:52:13.508Z,98970.06
2018-09-10T12:54:41.724Z,98966.73
2018-09-10T12:57:10.097Z,98965.25
2018-09-10T12:59:38.442Z,98970.13
2018-09-10T13:02:06.961Z,98963.73
2018-09-10T13:04:35.549Z,98967.01
2018-09-10T13:07:03.811Z,98963.05
2018-09-10T13:09:32.365Z,98955.76
2018-09-10T13:12:00.603Z,98951.71
2018-09-10T13:14:29.094Z,98954.02
2018-09-10T13:16:57.900Z,98952.47
2018-09-10T13:19:26.429Z,98949.19
2018-09-10T13:21:55.068Z,98941.47
2018-09-10T13:24:23.780Z,98947.50
2018-09-10T13:26:52.661Z,98940.38
2018-09-10T13:29:21.386Z,98938.06
2018-09-10T13:31:49.676Z,98939.00
2018-09-10T13:34:18.205Z,98936.10
2018-09-10T13:36:47.065Z,98946.02
2018-09-10T13:39:15.456Z,98942.61
2018-09-10T13:41:43.650Z,98942.41
2018-09-10T13:44:12.160Z,98936.38
2018-09-10T13:46:40.776Z,98937.45
2018-09-10T13:49:08.960Z,98930.97
2018-09-10T13:51:37.175Z,98931.03
2018-09-10T13:54:05.350Z,98935.03
2018-09-10T13:56:33.541Z,98930.58
2018-09-10T13:59:01.764Z,98928.84
2018-09-10T14:01:30.844Z,98923.25
2018-09-10T14:03:59.461Z,98922.61
2018-09-10T14:06:27.705Z,98923.85
2018-09-10T14:08:56.136Z,98925.17
2018-09-10T14:11:24.401Z,98921.31
2018-09-10T14:13:53.032Z,98922.52
2018-09-10T14:16:21.407Z,98921.91
2018-09-10T14:18:50.066Z,98920.67
2018-09-10T14:21:18.468Z,98920.36
2018-09-10T14:23:46.691Z,98924.09
2018-09-10T14:26:14.980Z,98925.86
2018-09-10T14:28:43.322Z,98933.31
2018-09-10T14:31:11.587Z,98923.03
2018-09-10T14:33:40.439Z,98941.83
2018-09-10T14:36:09.241Z,98923.34
2018-09-10T14:38:37.837Z,98930.01
2018-09-10T14:41:06.453Z,98924.63
2018-09-10T14:43:35.402Z,98923.19
2018-09-10T14:46:03.896Z,98924.53
2018-09-10T14:48:33.092Z,98915.73
2018-09-10T14:51:01.316Z,98918.97
2018-09-10T14:53:30.109Z,98913.58
2018-09-10T14:55:58.341Z,98916.39
2018-09-10T14:58:26.671Z,98916.20
2018-09-10T15:00:54.931Z,98912.35
2018-09-10T15:03:23.153Z,98908.11
2018-09-10T15:05:51.511Z,98911.92
2018-09-10T15:08:19.751Z,98901.22
2018-09-10T15:10:48.204Z,98911.59
2018-09-10T15:13:17.308Z,98898.63
2018-09-10T15:15:47.060Z,98905.93
2018-09-10T15:18:15.333Z,98901.84
2018-09-10T15:20:44.529Z,98905.93
2018-09-10T15:23:12.738Z,98916.10
2018-09-10T15:25:41.939Z,98908.81
2018-09-10T15:28:10.173Z,98897.69
2018-09-10T15:30:39.460Z,98900.39
2018-09-10T15:33:07.688Z,98890.83
2018-09-10T15:35:36.356Z,98896.91
2018-09-10T15:38:04.897Z,98906.39
2018-09-10T15:40:33.229Z,98896.41
2018-09-10T15:43:02.408Z,98903.94
2018-09-10T15:45:30.627Z,98901.17
2018-09-10T15:47:59.322Z,98908.10
2018-09-10T15:50:27.875Z,98913.64
2018-09-10T15:52:56.120Z,98922.17
2018-09-10T15:55:24.580Z,98917.31
2018-09-10T15:57:52.960Z,98929.48
2018-09-10T16:00:21.616Z,98917.94
2018-09-10T16:02:49.896Z,98919.15
2018-09-10T16:05:18.265Z,98927.34
2018-09-10T16:07:46.551Z,98928.30
2018-09-10T16:10:15.685Z,98931.12
2018-09-10T16:12:44.408Z,98930.29
2018-09-10T16:15:13.004Z,98925.23
2018-09-10T16:17:42.453Z,98921.94
2018-09-10T16:20:11.032Z,98923.28
2018-09-10T16:22:39.171Z,98922.34
2018-09-10T16:25:07.447Z,98925.91
2018-09-10T16:27:36.055Z,98928.41
2018-09-10T16:30:04.305Z,98929.99
2018-09-10T16:32:32.970Z,98936.56
2018-09-10T16:35:01.921Z,98933.06
2018-09-10T16:37:30.263Z,98933.09
2018-09-10T16:39:58.822Z,98932.98
2018-09-10T16:42:27.085Z,98937.25
2018-09-10T16:44:55.710Z,98936.92
2018-09-10T16:47:24.122Z,98939.55
2018-09-10T16:49:52.777Z,98938.45
2018-09-10T16:52:22.420Z,98940.56
2018-09-10T16:54:50.818Z,98940.33
2018-09-10T16:57:19.009Z,98933.77
2018-09-10T16:59:47.958Z,98939.95
2018-09-10T17:02:16.867Z,98939.98
2018-09-10T17:04:45.952Z,98940.05
2018-09-10T17:07:14.468Z,98932.77
2018-09-10T17:09:43.321Z,98933.77
2018-09-10T17:12:12.531Z,98936.39
2018-09-10T17:14:41.935Z,98937.24
2018-09-10T17:17:10.446Z,98928.70
2018-09-10T17:19:39.388Z,98929.95
2018-09-10T17:22:08.907Z,98931.95
2018-09-10T17:24:37.344Z,98934.39
2018-09-10T17:27:05.523Z,98933.94
2018-09-10T17:29:33.810Z,98937.23
2018-09-10T17:32:02.143Z,98938.95
2018-09-10T17:34:30.989Z,98937.81
2018-09-10T17:36:59.976Z,98942.33
2018-09-10T17:39:28.476Z,98942.78
2018-09-10T17:41:56.926Z,98948.06
2018-09-10T17:44:25.460Z,98952.88
2018-09-10T17:46:54.080Z,98946.28
2018-09-10T17:49:22.276Z,98948.94
2018-09-10T17:56:49.804Z,98950.83
2018-09-10T17:59:18.193Z,98958.03
2018-09-10T18:01:46.423Z,98961.23
2018-09-10T18:04:14.918Z,98950.52
2018-09-10T18:06:43.327Z,98953.19
2018-09-10T18:09:12.270Z,98959.14
2018-09-10T18:11:41.678Z,98964.89
2018-09-10T18:14:10.055Z,98962.03
2018-09-10T18:16:38.640Z,98970.84
2018-09-10T18:19:07.564Z,98962.98
2018-09-10T18:21:35.941Z,98970.30
2018-09-10T18:24:05.052Z,98967.09
2018-09-10T18:26:33.413Z,98963.56
2018-09-10T18:29:01.888Z,98969.20
2018-09-10T18:31:30.152Z,98981.27
2018-09-10T18:33:58.702Z,98982.75
2018-09-10T18:36:27.228Z,98981.44
2018-09-10T18:38:55.923Z,98983.45
2018-09-10T18:41:24.533Z,98974.86
2018-09-10T18:43:52.836Z,98975.88
2018-09-10T18:46:21.189Z,98976.05
2018-09-10T18:48:50.630Z,98984.41
2018-09-10T18:51:18.846Z,98987.30
2018-09-10T18:53:47.124Z,98993.39
2018-09-10T18:56:15.401Z,98996.69
2018-09-10T18:58:43.698Z,98996.21
2018-09-10T19:01:12.207Z,98998.69
2018-09-10T19:03:40.888Z,99005.07
2018-09-10T19:06:09.108Z,99002.50
2018-09-10T19:08:37.598Z,99007.79
2018-09-10T19:11:06.266Z,99008.61
2018-09-10T19:13:34.537Z,99006.62
2018-09-10T19:16:02.785Z,99004.83
2018-09-10T19:18:38.617Z,99012.37
2018-09-10T19:21:08.197Z,99015.66
2018-09-10T19:23:37.436Z,99013.70
2018-09-10T19:26:06.203Z,99011.08
2018-09-10T19:28:34.751Z,99010.77
2018-09-10T19:31:02.969Z,99009.28
2018-09-10T19:33:32.232Z,99010.43
2018-09-10T19:36:01.573Z,99011.91
2018-09-10T19:38:29.853Z,99017.47
2018-09-10T19:40:58.224Z,99016.30
2018-09-10T19:43:26.658Z,99015.31
2018-09-10T19:45:55.316Z,99015.98
2018-09-10T19:48:23.661Z,99011.23
2018-09-10T19:50:51.986Z,99011.69
2018-09-10T19:53:20.209Z,99017.88
2018-09-10T19:55:48.665Z,99010.02
2018-09-10T19:58:17.146Z,99012.95
2018-09-10T20:00:45.345Z,99019.64
2018-09-10T20:03:14.149Z,99019.02
2018-09-10T20:05:43.046Z,99016.18
2018-09-10T20:08:11.669Z,99013.42
2018-09-10T20:10:39.864Z,99019.30
2018-09-10T20:13:08.375Z,99013.72
2018-09-10T20:15:36.644Z,99022.72
2018-09-10T20:18:04.922Z,99026.00
2018-09-10T20:20:33.219Z,99031.33
2018-09-10T20:23:02.030Z,99033.36
2018-09-10T20:25:30.733Z,99032.94
2018-09-10T20:27:59.537Z,99039.08
2018-09-10T20:30:28.401Z,99040.17
2018-09-10T20:32:56.728Z,99039.80
2018-09-10T20:35:25.308Z,99045.30
2018-09-10T20:37:53.632Z,99051.81
2018-09-10T20:40:22.150Z,99056.20
2018-09-10T20:42:51.629Z,99054.86
2018-09-10T20:45:20.126Z,99059.44
2018-09-10T20:47:48.757Z,99064.28
2018-09-10T20:50:17.255Z,99075.26
2018-09-10T20:52:46.657Z,99074.78
2018-09-10T20:55:15.315Z,99076.25
2018-09-10T20:57:43.887Z,99078.13
2018-09-10T21:00:12.249Z,99081.27
2018-09-10T21:02:40.975Z,99088.31
2018-09-10T21:05:09.513Z,99085.28
2018-09-10T21:07:38.221Z,99091.95
2018-09-10T21:10:06.814Z,99090.02
2018-09-10T21:12:35.360Z,99093.08
2018-09-10T21:15:03.952Z,99093.72
2018-09-10T21:17:32.266Z,99093.72
2018-09-10T21:20:00.806Z,99094.37
2018-09-10T21:22:29.649Z,99090.53
2018-09-10T21:24:58.679Z,99087.86
2018-09-10T21:27:27.219Z,99085.79
2018-09-10T21:29:55.885Z,99093.41
2018-09-10T21:32:24.200Z,99092.45
2018-09-10T21:34:52.492Z,99097.38
2018-09-10T21:37:21.523Z,99098.97
2018-09-10T21:39:50.794Z,99091.56
2018-09-10T21:42:19.430Z,99094.57
2018-09-10T21:44:47.748Z,99091.33
2018-09-10T21:47:16.698Z,99095.60
2018-09-10T21:49:44.939Z,99094.83
2018-09-10T21:52:13.565Z,99098.03
2018-09-10T21:54:42.414Z,99098.09
2018-09-10T21:57:11.868Z,99098.14
2018-09-10T21:59:40.360Z,99099.80
2018-09-10T22:02:08.816Z,99102.04
2018-09-10T22:04:37.704Z,99109.33
2018-09-10T22:07:05.640Z,99102.77
2018-09-10T22:09:35.353Z,99100.82
2018-09-10T22:12:05.089Z,99105.26
2018-09-10T22:14:34.032Z,99111.66
2018-09-10T22:17:03.047Z,99104.24
2018-09-10T22:19:31.635Z,99101.70
2018-09-10T22:22:00.193Z,99105.45
2018-09-10T22:24:28.587Z,99110.93
2018-09-10T22:26:56.768Z,99106.38
2018-09-10T22:29:26.190Z,99102.94
2018-09-10T22:31:54.708Z,99104.13
2018-09-10T22:34:23.353Z,99104.92
2018-09-10T22:36:51.636Z,99099.64
2018-09-10T22:39:20.184Z,99102.53
2018-09-10T22:41:48.763Z,99093.69
2018-09-10T22:44:18.055Z,99092.61
2018-09-10T22:46:46.236Z,99090.95
2018-09-10T22:49:14.578Z,99098.39
2018-09-10T22:51:43.596Z,99100.11
2018-09-10T22:54:11.867Z,99097.30
2018-09-10T22:56:40.538Z,99098.66
2018-09-10T22:59:09.179Z,99096.43
2018-09-10T23:01:37.710Z,99094.10
2018-09-10T23:04:06.487Z,99091.97
2018-09-10T23:06:35.245Z,99089.91
2018-09-10T23:09:05.262Z,99093.66
2018-09-10T23:11:33.852Z,99093.47
2018-09-10T23:14:03.299Z,99090.41
2018-09-10T23:16:31.914Z,99094.05
2018-09-10T23:19:00.565Z,99099.53
2018-09-10T23:21:29.142Z,99099.83
2018-09-10T23:23:57.562Z,99106.63
2018-09-10T23:26:26.077Z,99109.42
2018-09-10T23:28:54.347Z,99117.05
2018-09-10T23:31:22.826Z,99121.23
2018-09-10T23:33:51.849Z,99116.97
2018-09-10T23:36:20.281Z,99119.17
2018-09-10T23:38:48.518Z,99117.87
2018-09-10T23:41:17.668Z,99120.00
2018-09-10T23:43:46.719Z,99126.70
2018-09-10T23:46:15.987Z,99127.73
2018-09-10T23:48:44.276Z,99130.53
2018-09-10T23:51:13.307Z,99131.95
2018-09-10T23:53:41.760Z,99129.22
2018-09-10T23:56:10.592Z,99133.06
2018-09-10T23:58:39.265Z,99125.48
